Time;durP1;ratioP1;P1;durP2;ratioP2;P2;SDS_P1;SDS_P2;PMS_P1;PMS_P2;Temp;Humidity;BMP_temperature;BMP_pressure;BME280_temperature;BME280_humidity;BME280_pressure;Samples;Min_cycle;Max_cycle;Signal;HPM_P1;HPM_P2
2023/12/11 00:01:14;;;;;;;10.85;5.88;;;;;;;;;;5093727;28;20032;-50
2023/12/11 00:03:41;;;;;;;7.70;5.95;;;;;;;;;;5095693;28;20099;-52
2023/12/11 00:06:08;;;;;;;7.82;5.72;;;;;;;;;;5105796;28;20077;-52
2023/12/11 00:08:34;;;;;;;10.40;5.82;;;;;;;;;;5105008;28;21346;-53
2023/12/11 00:11:01;;;;;;;8.60;5.30;;;;;;;;;;5095603;28;20039;-51
2023/12/11 00:13:28;;;;;;;9.07;4.82;;;;;;;;;;5096278;28;20309;-54
2023/12/11 00:15:55;;;;;;;8.57;5.30;;;;;;;;;;5085146;28;20032;-53
2023/12/11 00:18:25;;;;;;;8.27;5.20;;;;;;;;;;5090767;28;20055;-49
2023/12/11 00:20:52;;;;;;;10.63;5.03;;;;;;;;;;5101604;28;20040;-49
2023/12/11 00:23:21;;;;;;;10.05;5.13;;;;;;;;;;5105142;28;20037;-56
2023/12/11 00:25:48;;;;;;;7.70;5.15;;;;;;;;;;5100101;28;20031;-50
2023/12/11 00:28:15;;;;;;;7.07;5.35;;;;;;;;;;5097395;28;20035;-50
2023/12/11 00:30:41;;;;;;;9.85;5.25;;;;;;;;;;5105244;28;20091;-56
2023/12/11 00:33:08;;;;;;;6.97;4.90;;;;;;;;;;5105244;28;20090;-49
2023/12/11 00:35:35;;;;;;;8.93;5.30;;;;;;;;;;5105278;28;20315;-48
2023/12/11 00:38:01;;;;;;;9.48;5.00;;;;;;;;;;5104852;28;20087;-49
2023/12/11 00:40:28;;;;;;;11.07;5.05;;;;;;;;;;5105072;28;20073;-52
2023/12/11 00:42:55;;;;;;;8.95;5.18;;;;;;;;;;5104856;28;20260;-51
2023/12/11 00:45:22;;;;;;;6.45;5.10;;;;;;;;;;5104792;28;20208;-51
2023/12/11 00:47:48;;;;;;;8.27;4.93;;;;;;;;;;5104845;28;20027;-50
2023/12/11 00:50:15;;;;;;;9.40;4.93;;;;;;;;;;5104792;28;20253;-51
2023/12/11 00:52:44;;;;;;;7.60;4.47;;;;;;;;;;5104796;28;20019;-50
2023/12/11 00:55:12;;;;;;;9.77;4.95;;;;;;;;;;5104853;28;20035;-49
2023/12/11 00:57:38;;;;;;;14.40;5.75;;;;;;;;;;5104628;28;20024;-56
2023/12/11 01:00:06;;;;;;;11.98;4.90;;;;;;;;;;5099664;28;20035;-54
2023/12/11 01:02:32;;;;;;;11.10;5.00;;;;;;;;;;5095326;28;20028;-50
2023/12/11 01:04:59;;;;;;;10.23;4.60;;;;;;;;;;5090892;28;20027;-50
2023/12/11 01:07:25;;;;;;;11.10;4.40;;;;;;;;;;5104454;28;20084;-57
2023/12/11 01:09:52;;;;;;;8.65;4.20;;;;;;;;;;5104127;28;20027;-48
2023/12/11 01:12:19;;;;;;;7.85;4.32;;;;;;;;;;5104533;28;20016;-50
2023/12/11 01:14:45;;;;;;;9.63;4.60;;;;;;;;;;5104247;28;20016;-53
2023/12/11 01:17:12;;;;;;;10.00;4.10;;;;;;;;;;5104206;28;20095;-56
2023/12/11 01:19:41;;;;;;;9.75;4.07;;;;;;;;;;5103663;28;20073;-46
2023/12/11 01:22:09;;;;;;;11.88;4.72;;;;;;;;;;5103978;28;20032;-54
2023/12/11 01:24:37;;;;;;;11.15;4.35;;;;;;;;;;5102698;28;20036;-53
2023/12/11 01:27:06;;;;;;;7.63;4.60;;;;;;;;;;5104088;28;20055;-56
2023/12/11 01:29:34;;;;;;;12.25;4.68;;;;;;;;;;5103425;28;20031;-57
2023/12/11 01:32:00;;;;;;;7.70;4.55;;;;;;;;;;5103862;28;20039;-53
2023/12/11 01:34:27;;;;;;;8.13;4.20;;;;;;;;;;5103090;28;20027;-54
2023/12/11 01:36:54;;;;;;;6.63;4.22;;;;;;;;;;5104714;28;20024;-54
2023/12/11 01:39:20;;;;;;;7.55;4.55;;;;;;;;;;5104122;28;20036;-49
2023/12/11 01:41:47;;;;;;;7.60;4.70;;;;;;;;;;5104452;28;20091;-49
2023/12/11 01:44:14;;;;;;;9.77;4.95;;;;;;;;;;5103988;28;20035;-49
2023/12/11 01:46:40;;;;;;;7.45;3.80;;;;;;;;;;5104221;28;20028;-49
2023/12/11 01:49:07;;;;;;;9.48;4.55;;;;;;;;;;5104023;28;20031;-51
2023/12/11 01:51:34;;;;;;;33.67;7.80;;;;;;;;;;5104323;28;20223;-48
2023/12/11 01:54:00;;;;;;;23.33;6.45;;;;;;;;;;5103775;28;20320;-47
2023/12/11 01:56:28;;;;;;;20.42;6.00;;;;;;;;;;5104347;28;20076;-53
2023/12/11 01:58:55;;;;;;;16.15;5.05;;;;;;;;;;5104125;28;20016;-54
2023/12/11 02:01:25;;;;;;;12.00;5.20;;;;;;;;;;5107803;28;20032;-53
2023/12/11 02:03:52;;;;;;;10.35;4.75;;;;;;;;;;5108137;28;20086;-49
2023/12/11 02:06:19;;;;;;;10.27;4.90;;;;;;;;;;5108236;28;20051;-52
2023/12/11 02:08:46;;;;;;;10.00;4.90;;;;;;;;;;5107747;28;20061;-50
2023/12/11 02:11:13;;;;;;;9.85;5.10;;;;;;;;;;5108216;28;20055;-54
2023/12/11 02:13:40;;;;;;;17.35;5.38;;;;;;;;;;5107719;28;20012;-46
2023/12/11 02:16:07;;;;;;;20.67;5.93;;;;;;;;;;5107910;28;20299;-52
2023/12/11 02:18:34;;;;;;;15.85;5.63;;;;;;;;;;5107752;28;20328;-52
2023/12/11 02:21:00;;;;;;;11.07;5.22;;;;;;;;;;5107955;28;20028;-53
2023/12/11 02:23:45;;;;;;;15.85;5.10;;;;;;;;;;5107400;28;20028;-53
2023/12/11 02:26:16;;;;;;;18.70;5.72;;;;;;;;;;5107522;28;20140;-51
2023/12/11 02:28:43;;;;;;;11.95;4.90;;;;;;;;;;5107331;28;20319;-53
2023/12/11 02:31:10;;;;;;;10.88;5.10;;;;;;;;;;5107874;28;20032;-49
2023/12/11 02:33:37;;;;;;;10.95;5.13;;;;;;;;;;5107496;28;20045;-48
2023/12/11 02:36:07;;;;;;;9.05;4.97;;;;;;;;;;5107401;28;20028;-49
2023/12/11 02:38:34;;;;;;;9.70;4.90;;;;;;;;;;5107356;28;20366;-60
2023/12/11 02:41:04;;;;;;;12.25;4.72;;;;;;;;;;5107615;28;20245;-54
2023/12/11 02:43:31;;;;;;;18.10;5.38;;;;;;;;;;5107119;28;20134;-53
2023/12/11 02:45:57;;;;;;;15.18;4.65;;;;;;;;;;5107071;28;20097;-51
2023/12/11 02:48:24;;;;;;;11.52;5.20;;;;;;;;;;5107183;28;20012;-55
2023/12/11 02:50:52;;;;;;;8.98;5.18;;;;;;;;;;5107237;28;20032;-52
2023/12/11 02:53:19;;;;;;;10.35;5.15;;;;;;;;;;5107156;28;20027;-54
2023/12/11 02:55:46;;;;;;;9.55;4.70;;;;;;;;;;5107146;28;20024;-53
2023/12/11 02:58:13;;;;;;;12.15;4.55;;;;;;;;;;5106821;28;20149;-51
2023/12/11 03:00:40;;;;;;;8.32;4.60;;;;;;;;;;5106968;28;20043;-53
2023/12/11 03:03:09;;;;;;;11.45;3.97;;;;;;;;;;5106921;28;20039;-50
2023/12/11 03:05:36;;;;;;;10.18;4.25;;;;;;;;;;5106836;28;20311;-53
2023/12/11 03:08:05;;;;;;;10.52;4.28;;;;;;;;;;5106710;28;20028;-53
2023/12/11 03:10:33;;;;;;;8.43;4.25;;;;;;;;;;5105999;28;20023;-53
2023/12/11 03:13:01;;;;;;;9.65;3.80;;;;;;;;;;5106305;28;20092;-53
2023/12/11 03:15:27;;;;;;;8.82;3.75;;;;;;;;;;5106682;28;20032;-58
2023/12/11 03:17:54;;;;;;;8.48;3.90;;;;;;;;;;5106658;28;20370;-54
2023/12/11 03:20:21;;;;;;;6.88;3.60;;;;;;;;;;5106390;28;20116;-58
2023/12/11 03:22:48;;;;;;;13.68;3.92;;;;;;;;;;5106466;28;20051;-57
2023/12/11 03:25:14;;;;;;;10.32;3.58;;;;;;;;;;5106520;28;20173;-50
2023/12/11 03:27:41;;;;;;;6.85;3.35;;;;;;;;;;5106068;28;20047;-52
2023/12/11 03:30:08;;;;;;;7.38;3.25;;;;;;;;;;5106482;28;20097;-54
2023/12/11 03:32:35;;;;;;;7.82;3.33;;;;;;;;;;5106352;28;20208;-54
2023/12/11 03:35:02;;;;;;;9.02;3.42;;;;;;;;;;5106122;28;20036;-47
2023/12/11 03:37:29;;;;;;;4.85;2.95;;;;;;;;;;5106249;28;20024;-48
2023/12/11 03:39:55;;;;;;;7.30;2.95;;;;;;;;;;5106181;28;20020;-52
2023/12/11 03:42:25;;;;;;;6.88;2.90;;;;;;;;;;5105979;28;20093;-46
2023/12/11 03:44:52;;;;;;;6.70;2.95;;;;;;;;;;5105891;28;20312;-50
2023/12/11 03:47:18;;;;;;;4.32;2.70;;;;;;;;;;5106017;28;20028;-47
2023/12/11 03:49:45;;;;;;;5.78;2.80;;;;;;;;;;5105705;28;20105;-47
2023/12/11 03:52:12;;;;;;;7.55;3.03;;;;;;;;;;5106006;28;20095;-54
2023/12/11 03:54:38;;;;;;;6.13;3.35;;;;;;;;;;5105902;28;20246;-53
2023/12/11 03:57:05;;;;;;;5.30;3.22;;;;;;;;;;5106210;28;20044;-56
2023/12/11 03:59:32;;;;;;;7.07;2.97;;;;;;;;;;5105768;28;20016;-47
2023/12/11 04:01:59;;;;;;;5.03;3.10;;;;;;;;;;5106156;28;20357;-51
2023/12/11 04:04:25;;;;;;;7.22;3.03;;;;;;;;;;5105672;28;20036;-53
2023/12/11 04:06:52;;;;;;;7.80;2.97;;;;;;;;;;5106017;28;20027;-56
2023/12/11 04:09:19;;;;;;;6.25;3.13;;;;;;;;;;5105666;28;20357;-58
2023/12/11 04:11:45;;;;;;;6.90;3.10;;;;;;;;;;5105854;28;20036;-52
2023/12/11 04:14:12;;;;;;;5.60;2.85;;;;;;;;;;5105430;28;20031;-51
2023/12/11 04:16:43;;;;;;;6.07;3.03;;;;;;;;;;5105743;28;20020;-53
2023/12/11 04:19:13;;;;;;;7.17;2.70;;;;;;;;;;5105459;28;20024;-56
2023/12/11 04:21:40;;;;;;;6.95;2.80;;;;;;;;;;5105530;28;20032;-53
2023/12/11 04:24:07;;;;;;;6.82;2.88;;;;;;;;;;5105223;28;20016;-56
2023/12/11 04:26:33;;;;;;;7.07;3.15;;;;;;;;;;5105054;28;20044;-55
2023/12/11 04:29:00;;;;;;;7.72;3.00;;;;;;;;;;5105279;28;20047;-54
2023/12/11 04:31:27;;;;;;;7.32;3.05;;;;;;;;;;5105082;28;20020;-51
2023/12/11 04:33:53;;;;;;;5.65;2.80;;;;;;;;;;5104987;28;20031;-52
2023/12/11 04:36:20;;;;;;;7.40;2.65;;;;;;;;;;5105471;28;20032;-50
2023/12/11 04:38:47;;;;;;;4.43;2.53;;;;;;;;;;5104944;28;20016;-49
2023/12/11 04:41:14;;;;;;;5.55;2.70;;;;;;;;;;5105088;28;20043;-48
2023/12/11 04:43:40;;;;;;;6.55;2.90;;;;;;;;;;5104860;28;20020;-47
2023/12/11 04:46:07;;;;;;;5.03;2.38;;;;;;;;;;5105014;28;20353;-54
2023/12/11 04:48:35;;;;;;;6.13;2.67;;;;;;;;;;5104744;28;20035;-50
2023/12/11 04:51:02;;;;;;;5.20;2.92;;;;;;;;;;5105172;28;20032;-52
2023/12/11 04:53:29;;;;;;;5.63;2.80;;;;;;;;;;5104774;28;20090;-52
2023/12/11 04:55:56;;;;;;;6.30;3.03;;;;;;;;;;5104840;28;20101;-47
2023/12/11 04:58:22;;;;;;;4.97;2.53;;;;;;;;;;5104755;28;20036;-48
2023/12/11 05:00:50;;;;;;;5.53;2.70;;;;;;;;;;5104951;28;20024;-50
2023/12/11 05:03:17;;;;;;;4.78;2.63;;;;;;;;;;5104531;28;20227;-58
2023/12/11 05:05:44;;;;;;;6.80;2.80;;;;;;;;;;5104566;28;20034;-54
2023/12/11 05:08:10;;;;;;;5.55;2.70;;;;;;;;;;5103945;28;20012;-57
2023/12/11 05:10:37;;;;;;;5.82;2.40;;;;;;;;;;5095705;28;20033;-59
2023/12/11 05:13:04;;;;;;;9.63;2.78;;;;;;;;;;5104689;28;20091;-53
2023/12/11 05:15:30;;;;;;;5.43;2.22;;;;;;;;;;5106001;28;20263;-53
2023/12/11 05:17:57;;;;;;;6.53;2.50;;;;;;;;;;5104531;28;20024;-56
2023/12/11 05:20:24;;;;;;;6.20;2.40;;;;;;;;;;5104410;28;20044;-55
2023/12/11 05:22:50;;;;;;;6.10;2.50;;;;;;;;;;5104328;28;20069;-57
2023/12/11 05:25:17;;;;;;;5.90;2.60;;;;;;;;;;5104302;28;20036;-52
2023/12/11 05:27:44;;;;;;;8.05;2.65;;;;;;;;;;5104188;28;20228;-59
2023/12/11 05:30:11;;;;;;;4.75;2.20;;;;;;;;;;5104332;28;20028;-57
2023/12/11 05:32:38;;;;;;;7.03;2.50;;;;;;;;;;5104181;28;20312;-57
2023/12/11 05:35:06;;;;;;;5.97;2.40;;;;;;;;;;5103331;28;20219;-58
2023/12/11 05:37:33;;;;;;;7.03;2.67;;;;;;;;;;5100809;28;20016;-62
2023/12/11 05:39:59;;;;;;;5.22;2.60;;;;;;;;;;5094492;28;20030;-53
2023/12/11 05:42:26;;;;;;;5.10;2.38;;;;;;;;;;5097810;28;20031;-57
2023/12/11 05:44:53;;;;;;;3.28;2.22;;;;;;;;;;5088906;28;20054;-55
2023/12/11 05:47:19;;;;;;;9.77;2.53;;;;;;;;;;5092251;28;20054;-58
2023/12/11 05:49:46;;;;;;;4.25;2.22;;;;;;;;;;5086577;28;20017;-61
2023/12/11 05:52:13;;;;;;;4.32;2.50;;;;;;;;;;5083732;28;20231;-59
2023/12/11 05:54:39;;;;;;;4.97;2.10;;;;;;;;;;5099898;28;20099;-54
2023/12/11 05:57:06;;;;;;;5.80;2.10;;;;;;;;;;5100478;28;20028;-54
2023/12/11 05:59:33;;;;;;;4.78;2.33;;;;;;;;;;5087524;28;20258;-54
2023/12/11 06:02:00;;;;;;;4.55;2.33;;;;;;;;;;5097944;28;20035;-51
2023/12/11 06:04:27;;;;;;;3.85;2.22;;;;;;;;;;5103618;28;20032;-51
2023/12/11 06:06:53;;;;;;;4.97;2.50;;;;;;;;;;5102831;28;20088;-49
2023/12/11 06:09:20;;;;;;;4.03;2.17;;;;;;;;;;5096882;28;20061;-56
2023/12/11 06:11:47;;;;;;;6.07;2.50;;;;;;;;;;5093790;28;20031;-51
2023/12/11 06:14:13;;;;;;;5.70;2.47;;;;;;;;;;5102800;28;20023;-58
2023/12/11 06:16:41;;;;;;;7.75;2.50;;;;;;;;;;5097534;28;20052;-58
2023/12/11 06:19:07;;;;;;;3.17;2.38;;;;;;;;;;5083953;28;20021;-52
2023/12/11 06:21:34;;;;;;;6.78;2.97;;;;;;;;;;5083802;28;20087;-53
2023/12/11 06:24:01;;;;;;;4.93;2.58;;;;;;;;;;5083442;28;20386;-53
2023/12/11 06:26:31;;;;;;;7.65;2.85;;;;;;;;;;5083831;28;20146;-50
2023/12/11 06:29:00;;;;;;;6.03;2.67;;;;;;;;;;5095971;28;20016;-57
2023/12/11 06:31:27;;;;;;;6.35;2.90;;;;;;;;;;5101509;28;20204;-53
2023/12/11 06:33:54;;;;;;;5.10;2.53;;;;;;;;;;5103459;28;20031;-55
2023/12/11 06:36:21;;;;;;;5.78;3.03;;;;;;;;;;5103624;28;20308;-52
2023/12/11 06:38:51;;;;;;;6.45;2.42;;;;;;;;;;5103366;28;20051;-50
2023/12/11 06:41:20;;;;;;;5.95;2.60;;;;;;;;;;5103693;28;20318;-54
2023/12/11 06:43:57;;;;;;;4.28;2.65;;;;;;;;;;5102637;28;20074;-51
2023/12/11 06:46:28;;;;;;;4.57;2.22;;;;;;;;;;5106072;28;20032;-53
2023/12/11 06:48:56;;;;;;;8.40;2.30;;;;;;;;;;5098364;28;20024;-55
2023/12/11 06:51:25;;;;;;;4.45;1.90;;;;;;;;;;5087243;28;20043;-51
2023/12/11 06:53:58;;;;;;;4.13;2.30;;;;;;;;;;5102468;28;20012;-52
2023/12/11 06:56:25;;;;;;;4.95;2.25;;;;;;;;;;5099709;28;20036;-56
2023/12/11 06:58:52;;;;;;;3.22;1.90;;;;;;;;;;5107613;28;20053;-48
2023/12/11 07:01:19;;;;;;;3.92;1.92;;;;;;;;;;5127218;28;20335;-56
2023/12/11 07:03:48;;;;;;;5.30;2.00;;;;;;;;;;5127366;28;20023;-48
2023/12/11 07:06:17;;;;;;;5.80;2.17;;;;;;;;;;5110122;28;20365;-52
2023/12/11 07:08:43;;;;;;;5.80;2.00;;;;;;;;;;5105561;28;20047;-51
2023/12/11 07:11:10;;;;;;;4.50;1.70;;;;;;;;;;5105972;28;20072;-57
2023/12/11 07:13:37;;;;;;;5.15;1.98;;;;;;;;;;5106615;28;20020;-51
2023/12/11 07:16:04;;;;;;;7.28;1.85;;;;;;;;;;5106760;28;20028;-51
2023/12/11 07:18:31;;;;;;;3.95;2.08;;;;;;;;;;5105920;28;20057;-55
2023/12/11 07:20:57;;;;;;;5.47;2.17;;;;;;;;;;5098528;28;20031;-55
2023/12/11 07:23:24;;;;;;;4.82;2.40;;;;;;;;;;5096500;28;20087;-55
2023/12/11 07:25:51;;;;;;;5.53;2.20;;;;;;;;;;5095963;28;20023;-53
2023/12/11 07:28:17;;;;;;;5.78;2.03;;;;;;;;;;5099063;28;20028;-60
2023/12/11 07:30:44;;;;;;;3.95;2.30;;;;;;;;;;5095619;28;20029;-53
2023/12/11 07:33:11;;;;;;;4.05;1.60;;;;;;;;;;5095987;28;20022;-58
2023/12/11 07:35:37;;;;;;;5.30;1.90;;;;;;;;;;5096803;28;20181;-54
2023/12/11 07:38:06;;;;;;;4.10;2.10;;;;;;;;;;5094624;28;20114;-55
2023/12/11 07:40:32;;;;;;;5.47;2.20;;;;;;;;;;5097176;28;20020;-56
2023/12/11 07:42:59;;;;;;;5.05;2.20;;;;;;;;;;5094795;28;20323;-61
2023/12/11 07:45:26;;;;;;;4.85;2.15;;;;;;;;;;5102791;28;20024;-56
2023/12/11 07:47:53;;;;;;;3.80;1.83;;;;;;;;;;5106281;28;20257;-58
2023/12/11 07:50:19;;;;;;;3.53;1.60;;;;;;;;;;5106043;28;20028;-53
2023/12/11 07:52:46;;;;;;;5.57;1.98;;;;;;;;;;5104168;28;20023;-54
2023/12/11 07:55:13;;;;;;;5.20;1.70;;;;;;;;;;5096534;28;20023;-55
2023/12/11 07:57:40;;;;;;;4.25;2.20;;;;;;;;;;5095694;28;20039;-55
2023/12/11 08:00:07;;;;;;;7.15;2.05;;;;;;;;;;5094353;28;20028;-57
2023/12/11 08:02:35;;;;;;;5.30;2.13;;;;;;;;;;5095099;28;20204;-56
2023/12/11 08:05:02;;;;;;;5.10;1.60;;;;;;;;;;5096122;28;20312;-53
2023/12/11 08:07:29;;;;;;;7.13;2.28;;;;;;;;;;5094520;28;20035;-56
2023/12/11 08:09:56;;;;;;;6.18;1.95;;;;;;;;;;5098518;28;20361;-54
2023/12/11 08:12:25;;;;;;;2.97;1.77;;;;;;;;;;5096038;28;20023;-55
2023/12/11 08:14:51;;;;;;;3.90;1.80;;;;;;;;;;5095256;28;20316;-53
2023/12/11 08:17:18;;;;;;;3.97;2.03;;;;;;;;;;5093836;28;20024;-54
2023/12/11 08:19:45;;;;;;;4.65;1.80;;;;;;;;;;5095310;28;20324;-55
2023/12/11 08:22:11;;;;;;;4.85;1.77;;;;;;;;;;5095236;28;20048;-58
2023/12/11 08:24:38;;;;;;;4.40;1.60;;;;;;;;;;5093651;28;20317;-54
2023/12/11 08:27:07;;;;;;;3.90;1.67;;;;;;;;;;5095234;28;20381;-50
2023/12/11 08:29:37;;;;;;;3.53;1.90;;;;;;;;;;5095327;28;20017;-57
2023/12/11 08:32:04;;;;;;;6.88;1.77;;;;;;;;;;5099304;28;20016;-53
2023/12/11 08:34:30;;;;;;;2.85;1.75;;;;;;;;;;5095552;28;20028;-52
2023/12/11 08:36:57;;;;;;;5.57;1.75;;;;;;;;;;5094180;28;20411;-54
2023/12/11 08:39:24;;;;;;;7.38;1.77;;;;;;;;;;5094519;28;20040;-50
2023/12/11 08:41:51;;;;;;;4.35;1.55;;;;;;;;;;5095955;28;20107;-54
2023/12/11 08:44:18;;;;;;;6.18;2.00;;;;;;;;;;5095933;28;20028;-54
2023/12/11 08:46:44;;;;;;;7.65;1.95;;;;;;;;;;5098561;28;20032;-50
2023/12/11 08:49:11;;;;;;;4.13;1.83;;;;;;;;;;5093414;28;20030;-57
2023/12/11 08:51:38;;;;;;;5.50;2.10;;;;;;;;;;5095735;28;20087;-54
2023/12/11 08:54:05;;;;;;;6.07;1.60;;;;;;;;;;5094248;28;20356;-53
2023/12/11 08:56:32;;;;;;;3.70;2.00;;;;;;;;;;5093493;28;20127;-53
2023/12/11 08:58:58;;;;;;;3.00;1.63;;;;;;;;;;5093294;28;20012;-55
2023/12/11 09:01:25;;;;;;;5.43;1.75;;;;;;;;;;5094464;28;20008;-52
2023/12/11 09:03:52;;;;;;;3.45;1.80;;;;;;;;;;5095141;28;20021;-51
2023/12/11 09:06:19;;;;;;;4.63;1.35;;;;;;;;;;5093568;28;20099;-57
2023/12/11 09:08:45;;;;;;;4.28;1.95;;;;;;;;;;5092918;28;20326;-55
2023/12/11 09:11:12;;;;;;;3.97;1.77;;;;;;;;;;5095345;28;20025;-51
2023/12/11 09:13:40;;;;;;;3.88;1.63;;;;;;;;;;5093060;28;20047;-54
2023/12/11 09:16:07;;;;;;;5.57;1.60;;;;;;;;;;5093793;28;20060;-49
2023/12/11 09:18:34;;;;;;;5.55;1.77;;;;;;;;;;5094900;28;20058;-54
2023/12/11 09:21:00;;;;;;;4.53;1.60;;;;;;;;;;5096328;28;20256;-48
2023/12/11 09:23:29;;;;;;;2.78;1.58;;;;;;;;;;5093566;28;20044;-50
2023/12/11 09:25:56;;;;;;;3.38;1.60;;;;;;;;;;5093459;28;20028;-56
2023/12/11 09:28:22;;;;;;;5.63;1.88;;;;;;;;;;5094762;28;20024;-53
2023/12/11 09:30:49;;;;;;;3.20;1.70;;;;;;;;;;5092778;28;20021;-53
2023/12/11 09:33:16;;;;;;;6.47;1.90;;;;;;;;;;5094049;28;20036;-49
2023/12/11 09:35:43;;;;;;;7.03;1.70;;;;;;;;;;5095508;28;20048;-54
2023/12/11 09:38:11;;;;;;;5.65;1.88;;;;;;;;;;5094210;28;20026;-51
2023/12/11 09:40:38;;;;;;;2.75;1.30;;;;;;;;;;5094072;28;20028;-56
2023/12/11 09:43:05;;;;;;;3.67;1.70;;;;;;;;;;5092442;28;20085;-54
2023/12/11 09:45:32;;;;;;;4.07;1.65;;;;;;;;;;5093877;28;20020;-50
2023/12/11 09:47:59;;;;;;;5.13;1.73;;;;;;;;;;5094038;28;20024;-51
2023/12/11 09:50:26;;;;;;;6.78;1.60;;;;;;;;;;5092448;28;20055;-59
2023/12/11 09:52:53;;;;;;;2.55;1.50;;;;;;;;;;5093769;28;20012;-54
2023/12/11 09:55:19;;;;;;;3.58;1.80;;;;;;;;;;5094229;28;20099;-55
2023/12/11 09:57:47;;;;;;;2.78;1.58;;;;;;;;;;5092260;28;20028;-57
2023/12/11 10:00:14;;;;;;;4.47;1.70;;;;;;;;;;5093570;28;20047;-55
2023/12/11 10:02:42;;;;;;;3.30;1.60;;;;;;;;;;5094006;28;20024;-52
2023/12/11 10:05:10;;;;;;;4.00;1.88;;;;;;;;;;5092466;28;20039;-54
2023/12/11 10:07:37;;;;;;;5.15;2.20;;;;;;;;;;5093025;28;20008;-55
2023/12/11 10:10:23;;;;;;;7.32;1.98;;;;;;;;;;5094276;28;20073;-55
2023/12/11 10:12:50;;;;;;;4.03;1.80;;;;;;;;;;5094055;28;20024;-56
2023/12/11 10:15:22;;;;;;;6.15;1.88;;;;;;;;;;5092360;28;20324;-57
2023/12/11 10:18:09;;;;;;;3.05;1.50;;;;;;;;;;5093441;28;20096;-51
2023/12/11 10:20:37;;;;;;;4.35;1.90;;;;;;;;;;5094863;28;20040;-52
2023/12/11 10:23:23;;;;;;;5.43;1.70;;;;;;;;;;5096050;28;20036;-60
2023/12/11 10:25:51;;;;;;;3.67;1.60;;;;;;;;;;5096081;28;20036;-51
2023/12/11 10:28:19;;;;;;;5.80;1.80;;;;;;;;;;5096800;28;20016;-49
2023/12/11 10:30:49;;;;;;;4.32;1.90;;;;;;;;;;5097813;28;20043;-53
2023/12/11 10:33:18;;;;;;;6.90;2.03;;;;;;;;;;5097083;28;20035;-51
2023/12/11 10:35:45;;;;;;;4.57;1.80;;;;;;;;;;5095924;28;20043;-53
2023/12/11 10:38:20;;;;;;;4.22;1.73;;;;;;;;;;5097349;28;20256;-55
2023/12/11 10:40:49;;;;;;;10.27;2.03;;;;;;;;;;5097978;28;20028;-57
2023/12/11 10:43:16;;;;;;;3.58;1.60;;;;;;;;;;5096451;28;20024;-50
2023/12/11 10:45:43;;;;;;;6.93;1.88;;;;;;;;;;5095859;28;20095;-48
2023/12/11 10:48:09;;;;;;;3.67;2.05;;;;;;;;;;5095811;28;20039;-50
2023/12/11 10:50:37;;;;;;;3.65;1.88;;;;;;;;;;5096745;28;20055;-58
2023/12/11 10:53:03;;;;;;;3.60;1.75;;;;;;;;;;5097460;28;20335;-55
2023/12/11 10:55:33;;;;;;;4.13;1.70;;;;;;;;;;5097811;28;20040;-54
2023/12/11 10:58:03;;;;;;;3.10;1.67;;;;;;;;;;5096859;28;20028;-53
2023/12/11 11:00:31;;;;;;;3.40;1.88;;;;;;;;;;5094919;28;20308;-56
2023/12/11 11:02:58;;;;;;;8.52;1.60;;;;;;;;;;5096496;28;20020;-52
2023/12/11 11:05:28;;;;;;;4.80;2.03;;;;;;;;;;5095106;28;20037;-51
2023/12/11 11:08:00;;;;;;;7.22;2.25;;;;;;;;;;5096595;28;20020;-57
2023/12/11 11:10:32;;;;;;;5.45;2.38;;;;;;;;;;5095348;28;20020;-55
2023/12/11 11:13:01;;;;;;;5.60;2.47;;;;;;;;;;5097237;28;20018;-52
2023/12/11 11:15:29;;;;;;;102.07;6.40;;;;;;;;;;5097684;28;20074;-56
2023/12/11 11:17:59;;;;;;;5.70;3.00;;;;;;;;;;5096195;28;20016;-54
2023/12/11 11:20:30;;;;;;;16.25;4.07;;;;;;;;;;5097248;28;20095;-46
2023/12/11 11:23:18;;;;;;;8.00;3.90;;;;;;;;;;5097492;28;20020;-48
2023/12/11 11:25:54;;;;;;;5.95;4.40;;;;;;;;;;5092246;28;20039;-46
2023/12/11 11:28:33;;;;;;;10.80;4.53;;;;;;;;;;5096592;28;20023;-48
2023/12/11 11:31:00;;;;;;;14.38;4.65;;;;;;;;;;5096204;28;20024;-44
2023/12/11 11:33:43;;;;;;;8.50;4.90;;;;;;;;;;5096395;28;20011;-45
2023/12/11 11:36:10;;;;;;;9.18;5.45;;;;;;;;;;5097483;28;20606;-44
2023/12/11 11:38:56;;;;;;;9.73;4.75;;;;;;;;;;5096477;28;20023;-55
2023/12/11 11:41:23;;;;;;;8.82;4.90;;;;;;;;;;5096177;28;20082;-52
2023/12/11 11:43:59;;;;;;;9.30;4.30;;;;;;;;;;5094143;28;20011;-47
2023/12/11 11:46:27;;;;;;;8.60;4.15;;;;;;;;;;5095721;28;20036;-53
2023/12/11 11:48:55;;;;;;;8.07;3.78;;;;;;;;;;5093774;28;20015;-52
2023/12/11 11:51:22;;;;;;;6.50;3.60;;;;;;;;;;5094793;28;20021;-48
2023/12/11 11:53:52;;;;;;;4.57;2.70;;;;;;;;;;5094239;28;20031;-49
2023/12/11 11:56:19;;;;;;;9.00;3.70;;;;;;;;;;5095728;28;20044;-47
2023/12/11 11:58:46;;;;;;;8.95;3.05;;;;;;;;;;5093678;28;20082;-50
2023/12/11 12:01:12;;;;;;;9.18;3.30;;;;;;;;;;5095968;28;20036;-46
2023/12/11 12:03:40;;;;;;;4.90;2.65;;;;;;;;;;5095254;28;20016;-47
2023/12/11 12:06:07;;;;;;;7.40;2.75;;;;;;;;;;5094247;28;20099;-49
2023/12/11 12:08:36;;;;;;;8.18;2.90;;;;;;;;;;5094282;28;20024;-47
2023/12/11 12:11:04;;;;;;;6.00;2.67;;;;;;;;;;5094788;28;20085;-51
2023/12/11 12:13:39;;;;;;;6.47;2.75;;;;;;;;;;5095995;28;20031;-51
2023/12/11 12:16:06;;;;;;;9.07;3.03;;;;;;;;;;5096028;28;20070;-49
2023/12/11 12:18:33;;;;;;;9.93;2.80;;;;;;;;;;5094012;28;20308;-52
2023/12/11 12:21:09;;;;;;;5.07;2.53;;;;;;;;;;5095188;28;20019;-48
2023/12/11 12:23:36;;;;;;;4.85;2.80;;;;;;;;;;5100525;28;20091;-55
2023/12/11 12:26:04;;;;;;;8.20;2.80;;;;;;;;;;5094188;28;20036;-51
2023/12/11 12:28:31;;;;;;;7.10;2.95;;;;;;;;;;5095554;28;20052;-52
2023/12/11 12:30:58;;;;;;;5.72;2.70;;;;;;;;;;5094729;28;20028;-52
2023/12/11 12:33:25;;;;;;;6.82;3.17;;;;;;;;;;5093930;28;20315;-53
2023/12/11 12:35:52;;;;;;;3.60;2.72;;;;;;;;;;5096319;28;20024;-50
2023/12/11 12:38:19;;;;;;;4.75;3.28;;;;;;;;;;5093638;28;20020;-52
2023/12/11 12:40:46;;;;;;;7.72;3.30;;;;;;;;;;5091774;28;20043;-54
2023/12/11 12:43:14;;;;;;;6.70;3.45;;;;;;;;;;5093006;28;20027;-51
2023/12/11 12:45:41;;;;;;;7.80;3.05;;;;;;;;;;5094287;28;20091;-49
2023/12/11 12:48:13;;;;;;;9.32;3.22;;;;;;;;;;5094930;28;20016;-55
2023/12/11 12:50:39;;;;;;;6.85;3.53;;;;;;;;;;5095434;28;20062;-49
2023/12/11 12:53:13;;;;;;;7.93;2.90;;;;;;;;;;5093435;28;20024;-52
2023/12/11 12:55:42;;;;;;;5.60;2.90;;;;;;;;;;5093076;28;20043;-53
2023/12/11 12:58:10;;;;;;;7.35;3.17;;;;;;;;;;5094597;28;20248;-49
2023/12/11 13:00:39;;;;;;;7.75;2.75;;;;;;;;;;5094765;28;20224;-56
2023/12/11 13:03:08;;;;;;;6.10;3.05;;;;;;;;;;5093136;28;20133;-53
2023/12/11 13:05:41;;;;;;;9.35;3.13;;;;;;;;;;5093693;28;20035;-50
2023/12/11 13:08:08;;;;;;;9.52;2.95;;;;;;;;;;5093354;28;20027;-46
2023/12/11 13:10:34;;;;;;;5.93;3.00;;;;;;;;;;5093848;28;20012;-47
2023/12/11 13:13:10;;;;;;;9.00;3.08;;;;;;;;;;5094949;28;20351;-55
2023/12/11 13:15:38;;;;;;;12.07;3.10;;;;;;;;;;5094681;28;20107;-46
2023/12/11 13:18:04;;;;;;;11.48;3.53;;;;;;;;;;5092564;28;20099;-50
2023/12/11 13:20:31;;;;;;;7.00;2.97;;;;;;;;;;5094186;28;20328;-50
2023/12/11 13:22:58;;;;;;;7.50;3.13;;;;;;;;;;5094515;28;20017;-49
2023/12/11 13:25:27;;;;;;;7.55;2.95;;;;;;;;;;5092492;28;20043;-48
2023/12/11 13:27:53;;;;;;;5.82;2.97;;;;;;;;;;5093565;28;20036;-56
2023/12/11 13:30:20;;;;;;;7.20;3.10;;;;;;;;;;5094805;28;20133;-47
2023/12/11 13:32:47;;;;;;;6.00;3.33;;;;;;;;;;5092655;28;20332;-55
2023/12/11 13:35:13;;;;;;;5.15;2.92;;;;;;;;;;5093693;28;20034;-53
2023/12/11 13:37:40;;;;;;;5.32;2.92;;;;;;;;;;5094594;28;20023;-46
2023/12/11 13:40:07;;;;;;;6.97;3.10;;;;;;;;;;5092556;28;20054;-49
2023/12/11 13:42:34;;;;;;;6.35;2.60;;;;;;;;;;5093453;28;20020;-46
2023/12/11 13:45:02;;;;;;;4.20;2.50;;;;;;;;;;5094338;28;20017;-50
2023/12/11 13:47:29;;;;;;;7.75;2.92;;;;;;;;;;5092545;28;20370;-49
2023/12/11 13:49:55;;;;;;;8.57;3.28;;;;;;;;;;5092834;28;20028;-49
2023/12/11 13:52:23;;;;;;;5.68;3.00;;;;;;;;;;5094440;28;20204;-52
2023/12/11 13:54:50;;;;;;;3.83;2.58;;;;;;;;;;5093354;28;20024;-49
2023/12/11 13:57:19;;;;;;;8.27;2.85;;;;;;;;;;5096827;28;20035;-45
2023/12/11 13:59:46;;;;;;;4.78;2.70;;;;;;;;;;5096869;28;20262;-45
2023/12/11 14:02:13;;;;;;;5.75;2.58;;;;;;;;;;5097006;28;20054;-48
2023/12/11 14:04:39;;;;;;;5.38;2.67;;;;;;;;;;5098530;28;20020;-46
2023/12/11 14:07:06;;;;;;;5.43;2.70;;;;;;;;;;5097313;28;20039;-48
2023/12/11 14:09:34;;;;;;;4.25;2.47;;;;;;;;;;5097131;28;20031;-53
2023/12/11 14:12:00;;;;;;;4.68;2.33;;;;;;;;;;5098928;28;20031;-49
2023/12/11 14:14:27;;;;;;;4.22;2.63;;;;;;;;;;5096784;28;20330;-49
2023/12/11 14:16:55;;;;;;;5.20;2.60;;;;;;;;;;5097220;28;20246;-52
2023/12/11 14:19:22;;;;;;;6.93;2.42;;;;;;;;;;5098966;28;20046;-46
2023/12/11 14:21:48;;;;;;;7.35;2.97;;;;;;;;;;5099474;28;20019;-51
2023/12/11 14:24:17;;;;;;;5.28;2.60;;;;;;;;;;5096719;28;20028;-51
2023/12/11 14:26:44;;;;;;;5.10;2.80;;;;;;;;;;5098132;28;20047;-47
2023/12/11 14:29:10;;;;;;;4.80;2.78;;;;;;;;;;5096776;28;20323;-49
2023/12/11 14:31:37;;;;;;;6.05;2.58;;;;;;;;;;5096114;28;20028;-48
2023/12/11 14:34:04;;;;;;;7.18;2.83;;;;;;;;;;5097955;28;20028;-51
2023/12/11 14:36:34;;;;;;;4.43;2.40;;;;;;;;;;5095482;28;20050;-54
2023/12/11 14:39:01;;;;;;;5.47;2.90;;;;;;;;;;5097683;28;20043;-49
2023/12/11 14:41:28;;;;;;;5.68;2.65;;;;;;;;;;5096453;28;20062;-53
2023/12/11 14:43:54;;;;;;;5.78;2.75;;;;;;;;;;5096584;28;20058;-44